Data for 10/18/2007

Time Sea-Level Adjusted Pressure Absolute Pressure Temperature Relative Humidity Dew Point   
(mb) (inHg) (mb) (inHg) (C) (F) (%) (C) (F)
00:05 1013 29.91 842 24.86 1.3 34.4 64 -4.8 23.4
00:10 1013 29.91 842 24.86 1.3 34.3 63 -4.9 23.1
00:15 1013 29.91 842 24.86 1.2 34.1 64 -4.9 23.1
00:20 1013 29.91 842 24.86 1.2 34.2 63 -5.1 22.8
00:25 1013 29.91 842 24.86 1.2 34.2 63 -5 23.1
00:30 1013 29.91 842 24.86 1.4 34.5 62 -5 23
00:35 1013 29.91 842 24.86 1.6 34.8 62 -4.9 23.2
00:40 1013 29.91 842 24.86 1.8 35.3 65 -4.1 24.5
00:45 1013 29.91 842 24.86 1.8 35.2 65 -4 24.7
00:50 1013 29.91 842 24.86 1.6 34.9 66 -4 24.7
00:55 1013 29.91 842 24.86 1.6 34.9 67 -3.9 25.1
01:00 1013 29.91 843 24.89 1.6 34.9 65 -4.3 24.3
01:05 1013 29.91 843 24.89 1.8 35.3 62 -4.7 23.6
01:10 1013 29.91 843 24.89 2 35.5 62 -4.6 23.7
01:15 1013 29.91 843 24.89 2.1 35.7 63 -4.3 24.2
01:20 1013 29.91 843 24.89 2.2 35.9 61 -4.6 23.7
01:25 1013 29.91 843 24.89 2.4 36.3 59 -4.9 23.2
01:30 1013 29.91 843 24.89 2.6 36.6 58 -4.8 23.4
01:35 1014 29.94 843 24.89 2.7 36.9 56 -5.1 22.9
01:40 1014 29.94 843 24.89 2.8 37.1 57 -4.9 23.2
01:45 1014 29.94 843 24.89 2.8 37.1 57 -5 23.1
01:50 1014 29.94 843 24.89 2.8 37 58 -4.7 23.6
01:55 1014 29.94 843 24.89 2.8 37 59 -4.5 23.9
02:00 1014 29.94 843 24.89 2.7 36.8 59 -4.4 24
02:05 1014 29.94 843 24.89 2.6 36.8 60 -4.3 24.2
02:10 1014 29.94 843 24.89 2.6 36.7 60 -4.4 24.1
02:15 1014 29.94 843 24.89 2.6 36.6 62 -4.1 24.7
02:20 1014 29.94 843 24.89 2.6 36.6 62 -4 24.7
02:25 1014 29.94 843 24.89 2.5 36.5 63 -3.9 24.9
02:30 1014 29.94 843 24.89 2.4 36.2 64 -3.8 25.2
02:35 1014 29.94 843 24.89 2.3 36.1 65 -3.7 25.4
02:40 1014 29.94 843 24.89 2.2 36 65 -3.6 25.4
02:45 1014 29.94 843 24.89 2.2 36 66 -3.4 25.8
02:50 1014 29.94 843 24.89 2.1 35.9 66 -3.5 25.7
02:55 1014 29.94 843 24.89 2.2 35.9 65 -3.7 25.4
03:00 1014 29.94 843 24.89 2.2 35.9 66 -3.6 25.5
03:05 1014 29.94 843 24.89 2.2 36 66 -3.4 25.8
03:10 1014 29.94 843 24.89 2.2 36 66 -3.5 25.8
03:15 1014 29.94 843 24.89 2.3 36.1 66 -3.5 25.8
03:20 1014 29.94 843 24.89 2.3 36.1 67 -3.2 26.2
03:25 1014 29.94 843 24.89 2.3 36.2 66 -3.3 26
03:30 1014 29.94 843 24.89 2.4 36.3 67 -3.2 26.3
03:35 1014 29.94 843 24.89 2.3 36.1 68 -3 26.6
03:40 1014 29.94 843 24.89 2.2 35.9 69 -2.8 26.9
03:45 1014 29.94 844 24.92 2.1 35.8 69 -3 26.6
03:50 1014 29.94 844 24.92 2.1 35.7 68 -3.2 26.2
03:55 1014 29.94 844 24.92 2.1 35.8 66 -3.6 25.6
04:00 1014 29.94 844 24.92 2.2 36 66 -3.5 25.8
04:05 1014 29.94 844 24.92 2.3 36.1 67 -3.2 26.2
04:10 1014 29.94 844 24.92 2.4 36.3 67 -3 26.5
04:15 1014 29.94 844 24.92 2.4 36.2 67 -3.1 26.4
04:20 1015 29.97 844 24.92 2.4 36.3 71 -2.3 27.9
04:25 1015 29.97 844 24.92 2.3 36.1 71 -2.4 27.8
04:30 1015 29.97 844 24.92 2.2 35.9 72 -2.4 27.7
04:35 1015 29.97 844 24.92 2.1 35.8 72 -2.4 27.6
04:40 1015 29.97 844 24.92 2.2 35.9 71 -2.6 27.3
04:45 1015 29.97 844 24.92 2.2 36 69 -2.9 26.8
04:50 1015 29.97 844 24.92 2.3 36.1 67 -3.3 26
04:55 1015 29.97 844 24.92 2.3 36.1 67 -3.1 26.4
05:00 1015 29.97 844 24.92 2.2 35.9 70 -2.7 27.2
05:05 1015 29.97 844 24.92 2 35.5 71 -2.7 27.1
05:10 1015 29.97 844 24.92 1.9 35.4 71 -2.9 26.9
05:15 1015 29.97 844 24.92 2 35.5 69 -3.1 26.5
05:20 1015 29.97 844 24.92 2.1 35.7 68 -3.3 26.1
05:25 1015 29.97 844 24.92 2.2 35.9 68 -3.2 26.2
05:30 1015 29.97 844 24.92 2.2 36 67 -3.4 25.9
05:35 1015 29.97 844 24.92 2.3 36.2 64 -3.8 25.1
05:40 1015 29.97 844 24.92 2.3 36.2 65 -3.5 25.7
05:45 1015 29.97 844 24.92 2.2 36 66 -3.5 25.7
05:50 1015 29.97 844 24.92 2.2 36 66 -3.5 25.7
05:55 1015 29.97 844 24.92 2.2 35.9 67 -3.3 26.1
06:00 1015 29.97 844 24.92 2.1 35.8 69 -3.1 26.5
06:05 1015 29.97 844 24.92 2.1 35.7 67 -3.4 25.9
06:10 1015 29.97 844 24.92 2 35.7 68 -3.3 26
06:15 1015 29.97 844 24.92 2.1 35.7 67 -3.4 25.9
06:20 1015 29.97 844 24.92 2.1 35.8 66 -3.6 25.5
06:25 1015 29.97 844 24.92 2.1 35.8 66 -3.5 25.7
06:30 1015 29.97 844 24.92 2.1 35.7 66 -3.7 25.4
06:35 1015 29.97 844 24.92 2.1 35.7 66 -3.6 25.6
06:40 1015 29.97 844 24.92 2.1 35.8 66 -3.5 25.6
06:45 1015 29.97 844 24.92 2.2 36 66 -3.6 25.6
06:50 1015 29.97 844 24.92 2.2 36 65 -3.7 25.3
06:55 1015 29.97 844 24.92 2.2 35.9 65 -3.7 25.4
07:00 1015 29.97 844 24.92 2.1 35.8 66 -3.6 25.6
07:05 1015 29.97 844 24.92 2.1 35.7 66 -3.7 25.4
07:10 1015 29.97 844 24.92 2.1 35.7 65 -3.9 25.1
07:15 1015 29.97 844 24.92 2.1 35.8 65 -3.9 25
07:20 1015 29.97 844 24.92 2.1 35.7 65 -3.9 25
07:25 1015 29.97 844 24.92 2.1 35.7 64 -4 24.9
07:30 1015 29.97 844 24.92 2.1 35.7 64 -4.1 24.7
07:35 1015 29.97 844 24.92 2.1 35.7 64 -4.1 24.7
07:40 1015 29.97 845 24.95 2 35.6 63 -4.2 24.4
07:45 1015 29.97 845 24.95 2 35.6 64 -4.2 24.5
07:50 1015 29.97 845 24.95 2 35.6 64 -4 24.7
07:55 1015 29.97 845 24.95 2 35.6 65 -3.9 25
08:00 1016 30 845 24.95 2 35.7 65 -3.8 25.1
08:05 1016 30 845 24.95 2.1 35.8 65 -3.9 25
08:10 1015 29.97 845 24.95 2.1 35.8 65 -3.8 25.1
08:15 1015 29.97 845 24.95 2.2 35.9 65 -3.8 25.1
08:20 1015 29.97 845 24.95 2.2 36 64 -3.8 25.1
08:25 1015 29.97 845 24.95 2.3 36.2 63 -4.1 24.6
08:30 1015 29.97 845 24.95 2.5 36.4 62 -4.2 24.5
08:35 1015 29.97 845 24.95 2.7 36.8 60 -4.3 24.2
08:40 1015 29.97 844 24.92 2.8 37 60 -4.2 24.4
08:45 1015 29.97 844 24.92 2.8 37 60 -4.3 24.3
08:50 1015 29.97 844 24.92 2.6 36.6 58 -4.8 23.4
08:55 1015 29.97 844 24.92 2.6 36.6 58 -5 23
09:00 1015 29.97 844 24.92 2.6 36.7 58 -4.8 23.3
09:05 1015 29.97 844 24.92 2.6 36.6 60 -4.5 23.9
09:10 1015 29.97 844 24.92 2.5 36.5 59 -4.6 23.7
09:15 1015 29.97 844 24.92 2.6 36.6 59 -4.8 23.4
09:20 1015 29.97 844 24.92 2.6 36.6 58 -4.8 23.4
09:25 1015 29.97 844 24.92 2.7 36.9 57 -5 22.9
09:30 1015 29.97 844 24.92 3.2 37.8 52 -5.7 21.7
09:35 1015 29.97 844 24.92 3.6 38.4 50 -5.8 21.6
09:40 1015 29.97 844 24.92 3.7 38.7 49 -6.2 20.9
09:45 1015 29.97 844 24.92 3.8 38.9 49 -5.9 21.4
09:50 1015 29.97 844 24.92 4.1 39.4 49 -5.7 21.8
09:55 1015 29.97 844 24.92 4.3 39.8 47 -6 21.3
10:00 1015 29.97 844 24.92 4.1 39.3 45 -6.9 19.6
10:05 1015 29.97 844 24.92 4.3 39.7 43 -7.3 18.9
10:10 1015 29.97 844 24.92 4.4 39.9 43 -7.2 19.1
10:15 1015 29.97 844 24.92 4.5 40.1 42 -7.2 19
10:20 1015 29.97 844 24.92 4.4 39.9 42 -7.3 18.9
10:25 1015 29.97 844 24.92 4.6 40.2 43 -6.9 19.5
10:30 1015 29.97 844 24.92 4.8 40.6 42 -7.1 19.2
10:35 1015 29.97 844 24.92 4.6 40.3 43 -6.9 19.5
10:40 1015 29.97 845 24.95 4.8 40.7 41 -7.2 19.1
10:45 1015 29.97 844 24.92 5 41.1 39 -7.7 18.1
10:50 1015 29.97 844 24.92 5.3 41.5 38 -7.8 17.9
10:55 1015 29.97 844 24.92 5.4 41.8 36 -8.7 16.4
11:00 1015 29.97 844 24.92 5.4 41.7 34 -9.3 15.3
11:05 1015 29.97 844 24.92 5.4 41.6 35 -8.8 16.2
11:10 1015 29.97 845 24.95 5.5 41.9 35 -8.8 16.1
11:15 1015 29.97 845 24.95 5.5 41.9 35 -8.9 16.1
11:20 1015 29.97 845 24.95 5.6 42.1 35 -8.7 16.4
11:25 1015 29.97 844 24.92 5.8 42.4 35 -8.4 16.9
11:30 1015 29.97 844 24.92 5.6 42.2 34 -9.2 15.5
11:35 1015 29.97 844 24.92 5.8 42.4 34 -8.9 16
11:40 1015 29.97 844 24.92 5.4 41.6 34 -9.2 15.5
11:45 1015 29.97 844 24.92 5.4 41.6 34 -9.4 15.1
11:50 1015 29.97 844 24.92 5.7 42.3 33 -9.2 15.4
11:55 1015 29.97 844 24.92 5.7 42.2 34 -9.1 15.6
12:00 1015 29.97 844 24.92 5.9 42.7 32 -9.6 14.6
12:05 1015 29.97 844 24.92 5.7 42.3 33 -9.4 15.1
12:10 1015 29.97 844 24.92 6.1 42.9 29 -10.7 12.7
12:15 1015 29.97 844 24.92 6.5 43.7 31 -9.6 14.7
12:20 1015 29.97 844 24.92 6.7 44.1 33 -8.4 16.9
12:25 1015 29.97 844 24.92 6.2 43.1 36 -7.9 17.8
12:30 1015 29.97 844 24.92 6 42.8 37 -7.6 18.3
12:35 1015 29.97 844 24.92 6.2 43.1 34 -8.4 16.9
12:40 1015 29.97 844 24.92 7 44.6 33 -8.2 17.2
12:45 1015 29.97 844 24.92 6.8 44.3 33 -8.5 16.8
12:50 1015 29.97 844 24.92 6.8 44.2 32 -9 15.9
12:55 1015 29.97 844 24.92 6.7 44.1 32 -8.7 16.4
13:00 1015 29.97 844 24.92 7.3 45.2 32 -8.3 17
13:05 1015 29.97 844 24.92 7 44.6 33 -8 17.5
13:10 1015 29.97 844 24.92 6.3 43.3 34 -8.4 16.9
13:15 1015 29.97 844 24.92 6.2 43.2 34 -8.5 16.7
13:20 1014 29.94 844 24.92 6.8 44.3 34 -8 17.6
13:25 1014 29.94 843 24.89 7 44.7 34 -7.8 17.9
13:30 1014 29.94 843 24.89 6.5 43.6 35 -8 17.7
13:35 1014 29.94 843 24.89 7.1 44.7 31 -8.8 16.1
13:40 1014 29.94 843 24.89 8 46.4 30 -8.7 16.4
13:45 1013 29.91 843 24.89 8.6 47.5 29 -8.7 16.4
13:50 1014 29.94 843 24.89 8.2 46.7 31 -8.1 17.4
13:55 1014 29.94 843 24.89 8.1 46.5 32 -7.7 18.1
14:00 1013 29.91 843 24.89 7.8 46 32 -8.1 17.5
14:05 1013 29.91 843 24.89 7.6 45.7 32 -8.2 17.3
14:10 1013 29.91 843 24.89 8.1 46.5 32 -7.8 18
14:15 1013 29.91 842 24.86 8.5 47.3 31 -7.6 18.2
14:20 1013 29.91 842 24.86 8.2 46.7 29 -8.7 16.4
14:25 1013 29.91 842 24.86 8.2 46.7 32 -7.5 18.5
14:30 1013 29.91 842 24.86 8.3 46.9 30 -8.4 16.8
14:35 1013 29.91 842 24.86 8.8 47.8 29 -8.5 16.8
14:40 1013 29.91 842 24.86 8 46.3 29 -9 15.9
14:45 1013 29.91 842 24.86 7.8 46 30 -8.7 16.4
14:50 1013 29.91 842 24.86 7.8 46 27 -10 14.1
14:55 1013 29.91 842 24.86 8.2 46.8 27 -9.8 14.3
15:00 1013 29.91 842 24.86 8.5 47.3 27 -9.5 14.9
15:05 1013 29.91 842 24.86 8.4 47.1 27 -9.4 15.1
15:10 1013 29.91 842 24.86 8 46.5 28 -9.3 15.2
15:15 1013 29.91 842 24.86 7.8 46.1 28 -9.5 14.9
15:20 1013 29.91 842 24.86 7.6 45.7 28 -9.5 14.8
15:25 1013 29.91 842 24.86 7.7 45.9 29 -9.4 15.1
15:30 1013 29.91 842 24.86 7.8 46 28 -9.5 14.8
15:35 1012 29.88 842 24.86 7.5 45.5 30 -8.9 15.9
15:40 1012 29.88 842 24.86 7.4 45.3 32 -8.3 17.1
15:45 1012 29.88 841 24.83 7.7 45.8 30 -8.8 16.2
15:50 1012 29.88 841 24.83 7.4 45.4 32 -8.3 17
15:55 1012 29.88 841 24.83 7.3 45.2 31 -8.6 16.6
16:00 1012 29.88 842 24.86 7.2 45 31 -9 15.8
16:05 1013 29.91 842 24.86 7.2 44.9 31 -8.9 15.9
16:10 1013 29.91 842 24.86 7.2 44.9 32 -8.6 16.6
16:15 1013 29.91 842 24.86 7 44.6 32 -8.5 16.7
16:20 1013 29.91 842 24.86 6.9 44.4 33 -8.4 16.9
16:25 1013 29.91 842 24.86 7.1 44.8 31 -8.7 16.3
16:30 1013 29.91 842 24.86 7.2 45 33 -7.9 17.8
16:35 1013 29.91 842 24.86 7.2 45 32 -8.4 16.8
16:40 1013 29.91 842 24.86 7.2 45 30 -9 15.7
16:45 1013 29.91 842 24.86 7.2 44.9 32 -8.5 16.6
16:50 1013 29.91 842 24.86 7 44.7 32 -8.6 16.6
16:55 1013 29.91 842 24.86 7.1 44.7 33 -8.2 17.2
17:00 1012 29.88 842 24.86 7 44.5 35 -7.6 18.3
17:05 1012 29.88 842 24.86 6.9 44.4 40 -5.9 21.4
17:10 1012 29.88 841 24.83 6.7 44.1 39 -6.3 20.6
17:15 1012 29.88 841 24.83 6.7 44.1 40 -5.8 21.5
17:20 1012 29.88 841 24.83 6.8 44.2 40 -5.9 21.3
17:25 1012 29.88 841 24.83 6.8 44.2 39 -6.3 20.7
17:30 1012 29.88 841 24.83 6.8 44.3 39 -6.1 21.1
17:35 1012 29.88 841 24.83 6.9 44.5 41 -5.4 22.3
17:40 1012 29.88 841 24.83 6.7 44.1 42 -5.2 22.6
17:45 1012 29.88 841 24.83 6.7 44 42 -5.5 22.2
17:50 1012 29.88 841 24.83 6.7 44 42 -5.3 22.4
17:55 1012 29.88 841 24.83 6.7 44.1 43 -5 23.1
18:00 1012 29.88 841 24.83 6.6 43.9 43 -5 22.9
18:05 1012 29.88 841 24.83 6.5 43.8 43 -5.1 22.8
18:10 1012 29.88 841 24.83 6.5 43.8 44 -5 23
18:15 1012 29.88 841 24.83 6.4 43.5 45 -4.5 23.8
18:20 1012 29.88 841 24.83 6.3 43.4 46 -4.5 23.9
18:25 1012 29.88 842 24.86 6.2 43.2 46 -4.4 24.1
18:30 1012 29.88 841 24.83 6.3 43.4 46 -4.5 23.8
18:35 1012 29.88 841 24.83 6.3 43.3 48 -3.8 25.1
18:40 1012 29.88 841 24.83 6.1 43 47 -4.3 24.2
18:45 1012 29.88 841 24.83 6.2 43.2 46 -4.6 23.7
18:50 1012 29.88 841 24.83 6.3 43.3 47 -4.3 24.3
18:55 1012 29.88 841 24.83 6.3 43.4 45 -4.7 23.6
19:00 1012 29.88 842 24.86 6.5 43.7 45 -4.4 24
19:05 1012 29.88 842 24.86 6.6 43.9 45 -4.3 24.2
19:10 1012 29.88 842 24.86 6.7 44 47 -3.9 24.9
19:15 1012 29.88 842 24.86 6.6 43.9 47 -3.9 25.1
19:20 1012 29.88 842 24.86 6.5 43.7 47 -4.1 24.7
19:25 1012 29.88 842 24.86 6.5 43.7 47 -4 24.8
19:30 1012 29.88 841 24.83 6.4 43.5 47 -4 24.8
19:35 1012 29.88 841 24.83 6.3 43.3 48 -4 24.7
19:40 1012 29.88 841 24.83 6.2 43.1 47 -4.3 24.3
19:45 1012 29.88 841 24.83 6.2 43.2 49 -3.8 25.2
19:50 1012 29.88 841 24.83 6.1 43 48 -4 24.7
19:55 1012 29.88 841 24.83 6.1 43 48 -4 24.8
20:00 1012 29.88 841 24.83 6.2 43.1 49 -3.6 25.4
20:05 1012 29.88 841 24.83 6.2 43.2 49 -3.7 25.3
20:10 1012 29.88 842 24.86 6.2 43.1 48 -4 24.9
20:15 1012 29.88 842 24.86 6.3 43.3 48 -3.8 25.1
20:20 1012 29.88 841 24.83 6.3 43.3 49 -3.7 25.3
20:25 1012 29.88 841 24.83 6.3 43.4 49 -3.7 25.3
20:30 1012 29.88 841 24.83 6.4 43.5 47 -4 24.8
20:35 1012 29.88 841 24.83 6.5 43.6 50 -3.3 26.1
20:40 1012 29.88 841 24.83 6.3 43.3 50 -3.4 25.9
20:45 1012 29.88 841 24.83 6.2 43.2 51 -3.2 26.2
20:50 1012 29.88 841 24.83 6.2 43.1 51 -3.2 26.2
20:55 1012 29.88 841 24.83 6.2 43.1 52 -3 26.6
21:00 1012 29.88 841 24.83 6.1 43 52 -2.9 26.7
21:05 1012 29.88 841 24.83 6.1 42.9 51 -3.2 26.3
21:10 1012 29.88 841 24.83 6.2 43.2 50 -3.4 25.8
21:15 1012 29.88 841 24.83 6.4 43.5 51 -3 26.6
21:20 1012 29.88 841 24.83 6.3 43.4 50 -3.2 26.2
21:25 1012 29.88 841 24.83 6.4 43.6 51 -3.1 26.5
21:30 1012 29.88 841 24.83 6.5 43.7 50 -3 26.5
21:35 1012 29.88 841 24.83 6.6 43.8 52 -2.6 27.3
21:40 1012 29.88 841 24.83 6.5 43.8 50 -3.1 26.5
21:45 1012 29.88 841 24.83 6.7 44 50 -2.9 26.8
21:50 1012 29.88 841 24.83 6.7 44.1 50 -3 26.7
21:55 1012 29.88 841 24.83 6.8 44.2 51 -2.7 27.1
22:00 1012 29.88 841 24.83 6.9 44.3 48 -3.4 26
22:05 1012 29.88 841 24.83 7 44.6 48 -3.4 25.9
22:10 1012 29.88 841 24.83 7.1 44.9 48 -3.2 26.3
22:15 1012 29.88 841 24.83 7.2 45 47 -3.4 25.8
22:20 1012 29.88 841 24.83 7.4 45.4 47 -3.3 26.1
22:25 1012 29.88 841 24.83 7.5 45.4 47 -3.2 26.2
22:30 1012 29.88 841 24.83 7.4 45.3 47 -3.1 26.4
22:35 1012 29.88 841 24.83 7.4 45.3 50 -2.5 27.6
22:40 1012 29.88 841 24.83 7.4 45.3 48 -3 26.6
22:45 1012 29.88 841 24.83 7.1 44.8 50 -2.7 27.2
22:50 1012 29.88 841 24.83 6.8 44.3 51 -2.5 27.5
22:55 1012 29.88 841 24.83 6.9 44.4 50 -2.9 26.9
23:00 1012 29.88 841 24.83 7.3 45.2 49 -2.7 27.1
23:05 1012 29.88 841 24.83 7.3 45.1 50 -2.4 27.8
23:10 1011 29.85 841 24.83 7.1 44.7 51 -2.3 27.8
23:15 1011 29.85 841 24.83 7.1 44.7 52 -2.2 28
23:20 1011 29.85 840 24.81 7 44.6 52 -2.3 27.9
23:25 1011 29.85 840 24.81 7 44.6 52 -2.2 28.1
23:30 1011 29.85 840 24.81 7 44.6 53 -1.8 28.7
23:35 1011 29.85 840 24.81 7.1 44.7 53 -1.8 28.8
23:40 1011 29.85 840 24.81 7.4 45.2 52 -1.9 28.6
23:45 1011 29.85 840 24.81 7.5 45.5 52 -1.7 28.9
23:50 1011 29.85 841 24.83 7.5 45.6 51 -2 28.3
23:55 1011 29.85 840 24.81 7.6 45.6 51 -2 28.4
24:00 1011 29.85 840 24.81 7.6 45.7 52 -1.6 29.1